الصفحة الرئيسية
METAR-TAF:

METAR-TAF

مطار :

مطار إيسنبوغا الدولي

أنقرة Esenboğa, تركيا

دائرة عرض: 40-07N, خط طول: 032-59E, ارتفاع: 953 متر

مراقبة الطقس الحالي

تاريخ ووقت الإصدار 32 دقيقة قبل الساعة 21:50UTC
ريح 1 عقدةمن اتجاهات متغيرة
درجة الحرارة 14°درجة مئوية
الرطوبة 36%
ضغط 1020 hPa
الرؤية 10 كم أو أكثر
الغيوم لا تقل 1500 م ولا وجود لمزنة ركامية السحاب الأسود

METAR: LTAC 222150Z VRB01KT CAVOK 14/M01 Q1020 NOSIG

زمن: 01:22 (22:22 UTC)

توقعات

تاريخ ووقت الإصدار 5ساعات و 42 دقيقة قبل الساعة 16:40UTC
التوقعات صالحة من22 الساعة 18 UTC إلى 23 الساعة 18 UTC
ريح 2 عقدةمن اتجاهات متغيرة
الرؤية 10 كم أو أكثر
الغيوم لا تقل 1500 م ولا وجود لمزنة ركامية السحاب الأسود
أصبح
من 23 الساعة 06 UTC إلى 23 الساعة 08 UTC
غيوم متفرقة على ارتفاع 4000 قدم
أصبح
من 23 الساعة 15 UTC إلى 23 الساعة 17 UTC
الرؤية 10 كم أو أكثر
الغيوم لا تقل 1500 م ولا وجود لمزنة ركامية السحاب الأسود

TAF: LTAC 221640Z 2218/2318 VRB02KT CAVOK BECMG 2306/2308 SCT040 BECMG 2315/2317 CAVOK

أرصاد الطقس والتوقعات من أكثر من 4000 مطار (تقارير الطقس للمطار METAR والتنبؤ بالطقس بالمطارTAF).

المحطات المتاحة هي النقط الصفراء والحمراء على الخريطة.

حرك المؤشر فوق النقطة لمعرفة اسم المحطة.

ثم انقر لمعرفة أرصاد وتوقعات الطقس.

لتغيير الخارطة: اضغط على الأزرار الخضراء مع رمز الصليب الأسود للتكبير. على الزر الأخضر مع شرطة للتصغير، أو على الأسهم الخضراء للخرائط المجاورة.


METAR-TAF: